sensor_id;sensor_type;location;lat;lon;timestamp;pressure;altitude;pressure_sealevel;temperature;humidity
550;BME280;20066;48.764;9.176;2024-03-08T00:00:31;98095.97;;;6.40;63.96
550;BME280;20066;48.764;9.176;2024-03-08T00:02:59;98101.56;;;6.32;64.44
550;BME280;20066;48.764;9.176;2024-03-08T00:05:29;98094.91;;;6.22;64.17
550;BME280;20066;48.764;9.176;2024-03-08T00:07:58;98090.34;;;6.72;62.52
550;BME280;20066;48.764;9.176;2024-03-08T00:10:26;98086.59;;;6.76;62.78
550;BME280;20066;48.764;9.176;2024-03-08T00:12:56;98085.44;;;7.00;61.29
550;BME280;20066;48.764;9.176;2024-03-08T00:15:25;98087.16;;;6.40;62.51
550;BME280;20066;48.764;9.176;2024-03-08T00:17:56;98082.09;;;6.57;62.73
550;BME280;20066;48.764;9.176;2024-03-08T00:20:24;98085.75;;;5.77;65.51
550;BME280;20066;48.764;9.176;2024-03-08T00:22:52;98078.69;;;6.34;63.91
550;BME280;20066;48.764;9.176;2024-03-08T00:25:20;98089.81;;;5.91;64.67
550;BME280;20066;48.764;9.176;2024-03-08T00:27:49;98094.56;;;6.01;64.91
550;BME280;20066;48.764;9.176;2024-03-08T00:30:19;98085.91;;;5.65;66.11
550;BME280;20066;48.764;9.176;2024-03-08T00:32:47;98085.72;;;6.19;63.73
550;BME280;20066;48.764;9.176;2024-03-08T00:35:15;98081.34;;;6.08;63.94
550;BME280;20066;48.764;9.176;2024-03-08T00:37:44;98076.38;;;5.06;67.95
550;BME280;20066;48.764;9.176;2024-03-08T00:40:14;98071.94;;;5.53;66.70
550;BME280;20066;48.764;9.176;2024-03-08T00:42:42;98074.94;;;5.70;65.18
550;BME280;20066;48.764;9.176;2024-03-08T00:45:11;98071.00;;;4.87;67.77
550;BME280;20066;48.764;9.176;2024-03-08T00:47:40;98069.75;;;5.58;66.63
550;BME280;20066;48.764;9.176;2024-03-08T00:50:11;98071.78;;;5.84;64.90
550;BME280;20066;48.764;9.176;2024-03-08T00:52:39;98055.81;;;6.10;64.17
550;BME280;20066;48.764;9.176;2024-03-08T00:55:08;98062.97;;;5.03;67.96
550;BME280;20066;48.764;9.176;2024-03-08T00:57:37;98055.78;;;4.88;69.16
550;BME280;20066;48.764;9.176;2024-03-08T01:00:07;98060.53;;;4.79;69.24
550;BME280;20066;48.764;9.176;2024-03-08T01:02:40;98053.78;;;5.39;67.03
550;BME280;20066;48.764;9.176;2024-03-08T01:05:08;98055.00;;;6.06;64.42
550;BME280;20066;48.764;9.176;2024-03-08T01:07:36;98049.72;;;5.26;68.05
550;BME280;20066;48.764;9.176;2024-03-08T01:10:05;98046.13;;;5.79;65.91
550;BME280;20066;48.764;9.176;2024-03-08T01:12:36;98043.41;;;4.60;69.28
550;BME280;20066;48.764;9.176;2024-03-08T01:15:05;98046.09;;;4.80;68.71
550;BME280;20066;48.764;9.176;2024-03-08T01:17:33;98045.16;;;4.06;71.92
550;BME280;20066;48.764;9.176;2024-03-08T01:20:03;98044.06;;;4.38;70.68
550;BME280;20066;48.764;9.176;2024-03-08T01:22:33;98043.47;;;5.18;67.75
550;BME280;20066;48.764;9.176;2024-03-08T01:25:01;98039.94;;;4.95;67.17
550;BME280;20066;48.764;9.176;2024-03-08T01:27:31;98039.00;;;5.22;67.87
550;BME280;20066;48.764;9.176;2024-03-08T01:29:59;98029.44;;;5.21;67.17
550;BME280;20066;48.764;9.176;2024-03-08T01:32:27;98032.50;;;5.42;66.00
550;BME280;20066;48.764;9.176;2024-03-08T01:34:55;98028.25;;;5.38;66.35
550;BME280;20066;48.764;9.176;2024-03-08T01:37:24;98021.72;;;4.97;67.43
550;BME280;20066;48.764;9.176;2024-03-08T01:39:51;98024.16;;;5.25;66.78
550;BME280;20066;48.764;9.176;2024-03-08T01:42:19;98014.69;;;5.27;65.68
550;BME280;20066;48.764;9.176;2024-03-08T01:44:48;98016.28;;;5.51;65.38
550;BME280;20066;48.764;9.176;2024-03-08T01:47:17;98012.31;;;5.64;65.40
550;BME280;20066;48.764;9.176;2024-03-08T01:49:47;98003.56;;;5.87;64.24
550;BME280;20066;48.764;9.176;2024-03-08T01:52:15;97998.63;;;5.89;64.47
550;BME280;20066;48.764;9.176;2024-03-08T01:54:46;97990.81;;;5.54;65.58
550;BME280;20066;48.764;9.176;2024-03-08T01:57:15;97983.69;;;5.19;66.14
550;BME280;20066;48.764;9.176;2024-03-08T01:59:43;97983.41;;;5.66;65.27
550;BME280;20066;48.764;9.176;2024-03-08T02:02:11;97985.13;;;6.01;64.40
550;BME280;20066;48.764;9.176;2024-03-08T02:04:40;97981.25;;;6.24;63.38
550;BME280;20066;48.764;9.176;2024-03-08T02:07:08;97977.28;;;5.89;63.92
550;BME280;20066;48.764;9.176;2024-03-08T02:09:37;97974.53;;;5.39;64.38
550;BME280;20066;48.764;9.176;2024-03-08T02:12:07;97974.63;;;5.66;64.90
550;BME280;20066;48.764;9.176;2024-03-08T02:14:35;97962.50;;;5.26;66.30
550;BME280;20066;48.764;9.176;2024-03-08T02:17:03;97966.31;;;5.71;64.49
550;BME280;20066;48.764;9.176;2024-03-08T02:19:32;97959.03;;;5.03;66.42
550;BME280;20066;48.764;9.176;2024-03-08T02:22:04;97963.06;;;5.81;63.96
550;BME280;20066;48.764;9.176;2024-03-08T02:24:32;97955.69;;;5.97;63.43
550;BME280;20066;48.764;9.176;2024-03-08T02:27:01;97955.81;;;5.36;65.61
550;BME280;20066;48.764;9.176;2024-03-08T02:29:29;97947.72;;;5.74;64.25
550;BME280;20066;48.764;9.176;2024-03-08T02:31:58;97944.31;;;6.00;62.74
550;BME280;20066;48.764;9.176;2024-03-08T02:34:26;97942.19;;;6.13;62.18
550;BME280;20066;48.764;9.176;2024-03-08T02:36:54;97939.94;;;6.15;61.81
550;BME280;20066;48.764;9.176;2024-03-08T02:39:24;97940.25;;;5.61;64.00
550;BME280;20066;48.764;9.176;2024-03-08T02:41:54;97941.19;;;5.49;63.30
550;BME280;20066;48.764;9.176;2024-03-08T02:44:22;97940.03;;;5.47;64.12
550;BME280;20066;48.764;9.176;2024-03-08T02:46:50;97929.22;;;5.39;64.08
550;BME280;20066;48.764;9.176;2024-03-08T02:49:17;97939.25;;;5.69;62.85
550;BME280;20066;48.764;9.176;2024-03-08T02:51:45;97925.31;;;5.33;64.13
550;BME280;20066;48.764;9.176;2024-03-08T02:54:13;97928.84;;;5.41;63.43
550;BME280;20066;48.764;9.176;2024-03-08T02:56:42;97931.38;;;5.11;64.35
550;BME280;20066;48.764;9.176;2024-03-08T02:59:10;97923.47;;;5.60;62.78
550;BME280;20066;48.764;9.176;2024-03-08T03:01:39;97925.81;;;5.88;61.72
550;BME280;20066;48.764;9.176;2024-03-08T03:04:07;97930.03;;;6.15;60.92
550;BME280;20066;48.764;9.176;2024-03-08T03:06:35;97921.44;;;5.76;61.60
550;BME280;20066;48.764;9.176;2024-03-08T03:09:03;97923.97;;;6.18;60.15
550;BME280;20066;48.764;9.176;2024-03-08T03:11:32;97917.09;;;5.91;60.61
550;BME280;20066;48.764;9.176;2024-03-08T03:14:02;97914.16;;;5.73;61.72
550;BME280;20066;48.764;9.176;2024-03-08T03:16:32;97910.16;;;5.87;60.58
550;BME280;20066;48.764;9.176;2024-03-08T03:18:59;97915.84;;;5.36;62.47
550;BME280;20066;48.764;9.176;2024-03-08T03:21:29;97914.56;;;5.07;64.08
550;BME280;20066;48.764;9.176;2024-03-08T03:23:58;97913.34;;;4.82;62.85
550;BME280;20066;48.764;9.176;2024-03-08T03:26:28;97909.25;;;5.53;62.15
550;BME280;20066;48.764;9.176;2024-03-08T03:28:57;97908.34;;;4.99;62.50
550;BME280;20066;48.764;9.176;2024-03-08T03:31:28;97906.59;;;5.30;62.93
550;BME280;20066;48.764;9.176;2024-03-08T03:33:56;97901.59;;;5.74;61.21
550;BME280;20066;48.764;9.176;2024-03-08T03:36:28;97901.41;;;5.63;61.05
550;BME280;20066;48.764;9.176;2024-03-08T03:38:56;97892.03;;;5.47;62.51
550;BME280;20066;48.764;9.176;2024-03-08T03:41:32;97886.44;;;5.10;62.75
550;BME280;20066;48.764;9.176;2024-03-08T03:44:01;97891.28;;;5.27;62.55
550;BME280;20066;48.764;9.176;2024-03-08T03:46:30;97886.66;;;5.69;61.01
550;BME280;20066;48.764;9.176;2024-03-08T03:48:58;97887.50;;;5.51;60.98
550;BME280;20066;48.764;9.176;2024-03-08T03:51:25;97882.81;;;5.44;61.16
550;BME280;20066;48.764;9.176;2024-03-08T03:53:53;97881.44;;;5.76;60.85
550;BME280;20066;48.764;9.176;2024-03-08T03:56:25;97882.88;;;5.25;62.01
550;BME280;20066;48.764;9.176;2024-03-08T03:58:53;97882.38;;;5.65;61.68
550;BME280;20066;48.764;9.176;2024-03-08T04:01:20;97889.63;;;5.64;61.15
550;BME280;20066;48.764;9.176;2024-03-08T04:03:50;97887.31;;;5.17;61.95
550;BME280;20066;48.764;9.176;2024-03-08T04:06:18;97884.84;;;4.86;63.62
550;BME280;20066;48.764;9.176;2024-03-08T04:08:46;97875.38;;;5.30;61.34
550;BME280;20066;48.764;9.176;2024-03-08T04:11:13;97885.31;;;4.68;62.44
550;BME280;20066;48.764;9.176;2024-03-08T04:13:43;97882.09;;;4.59;64.90
550;BME280;20066;48.764;9.176;2024-03-08T04:16:11;97882.28;;;4.51;66.45
550;BME280;20066;48.764;9.176;2024-03-08T04:18:39;97878.31;;;4.60;65.34
550;BME280;20066;48.764;9.176;2024-03-08T04:21:08;97874.94;;;4.44;65.11
550;BME280;20066;48.764;9.176;2024-03-08T04:23:37;97867.97;;;4.40;65.99
550;BME280;20066;48.764;9.176;2024-03-08T04:26:04;97866.75;;;4.53;64.41
550;BME280;20066;48.764;9.176;2024-03-08T04:28:33;97864.63;;;5.04;64.17
550;BME280;20066;48.764;9.176;2024-03-08T04:31:02;97868.75;;;4.79;63.63
550;BME280;20066;48.764;9.176;2024-03-08T04:33:29;97863.41;;;4.79;64.60
550;BME280;20066;48.764;9.176;2024-03-08T04:35:58;97863.03;;;4.99;63.69
550;BME280;20066;48.764;9.176;2024-03-08T04:38:27;97866.47;;;5.00;63.51
550;BME280;20066;48.764;9.176;2024-03-08T04:40:55;97852.97;;;5.12;63.09
550;BME280;20066;48.764;9.176;2024-03-08T04:43:23;97861.50;;;4.98;63.17
550;BME280;20066;48.764;9.176;2024-03-08T04:45:53;97861.28;;;4.88;64.39
550;BME280;20066;48.764;9.176;2024-03-08T04:48:21;97855.28;;;4.91;63.78
550;BME280;20066;48.764;9.176;2024-03-08T04:50:48;97849.72;;;4.38;65.93
550;BME280;20066;48.764;9.176;2024-03-08T04:53:16;97858.81;;;4.56;65.80
550;BME280;20066;48.764;9.176;2024-03-08T04:55:46;97856.31;;;4.86;64.28
550;BME280;20066;48.764;9.176;2024-03-08T04:58:13;97852.78;;;4.59;65.15
550;BME280;20066;48.764;9.176;2024-03-08T05:00:42;97850.16;;;4.24;66.31
550;BME280;20066;48.764;9.176;2024-03-08T05:03:09;97840.81;;;4.69;64.15
550;BME280;20066;48.764;9.176;2024-03-08T05:05:38;97844.50;;;4.84;63.94
550;BME280;20066;48.764;9.176;2024-03-08T05:08:07;97842.78;;;4.53;65.38
550;BME280;20066;48.764;9.176;2024-03-08T05:10:35;97838.03;;;4.08;66.15
550;BME280;20066;48.764;9.176;2024-03-08T05:13:04;97842.44;;;4.77;64.27
550;BME280;20066;48.764;9.176;2024-03-08T05:15:32;97844.09;;;3.89;66.23
550;BME280;20066;48.764;9.176;2024-03-08T05:18:01;97838.84;;;3.92;68.68
550;BME280;20066;48.764;9.176;2024-03-08T05:20:29;97842.66;;;4.88;64.07
550;BME280;20066;48.764;9.176;2024-03-08T05:22:57;97839.84;;;5.00;63.76
550;BME280;20066;48.764;9.176;2024-03-08T05:25:26;97842.78;;;5.18;63.24
550;BME280;20066;48.764;9.176;2024-03-08T05:27:54;97839.06;;;5.22;62.82
550;BME280;20066;48.764;9.176;2024-03-08T05:30:24;97838.59;;;5.66;61.09
550;BME280;20066;48.764;9.176;2024-03-08T05:32:52;97835.19;;;5.42;62.01
550;BME280;20066;48.764;9.176;2024-03-08T05:35:20;97842.00;;;5.17;62.62
550;BME280;20066;48.764;9.176;2024-03-08T05:37:48;97827.31;;;4.23;65.58
550;BME280;20066;48.764;9.176;2024-03-08T05:40:15;97839.94;;;4.65;64.00
550;BME280;20066;48.764;9.176;2024-03-08T05:42:46;97838.53;;;5.13;62.86
550;BME280;20066;48.764;9.176;2024-03-08T05:45:14;97833.53;;;5.12;63.07
550;BME280;20066;48.764;9.176;2024-03-08T05:47:43;97836.72;;;4.37;65.03
550;BME280;20066;48.764;9.176;2024-03-08T05:50:12;97833.00;;;5.02;63.51
550;BME280;20066;48.764;9.176;2024-03-08T05:52:42;97830.88;;;5.34;62.01
550;BME280;20066;48.764;9.176;2024-03-08T05:55:10;97829.63;;;5.55;60.92
550;BME280;20066;48.764;9.176;2024-03-08T05:57:40;97828.25;;;5.64;60.76
550;BME280;20066;48.764;9.176;2024-03-08T06:00:10;97831.03;;;4.19;65.22
550;BME280;20066;48.764;9.176;2024-03-08T06:02:38;97835.91;;;4.52;64.53
550;BME280;20066;48.764;9.176;2024-03-08T06:05:10;97824.53;;;5.20;62.32
550;BME280;20066;48.764;9.176;2024-03-08T06:07:38;97833.81;;;4.61;64.89
550;BME280;20066;48.764;9.176;2024-03-08T06:10:08;97822.00;;;4.62;64.77
550;BME280;20066;48.764;9.176;2024-03-08T06:12:38;97829.88;;;4.55;64.76
550;BME280;20066;48.764;9.176;2024-03-08T06:15:08;97829.06;;;5.16;63.29
550;BME280;20066;48.764;9.176;2024-03-08T06:17:37;97827.66;;;5.25;62.49
550;BME280;20066;48.764;9.176;2024-03-08T06:20:06;97824.66;;;4.81;63.82
550;BME280;20066;48.764;9.176;2024-03-08T06:22:39;97824.94;;;5.44;62.33
550;BME280;20066;48.764;9.176;2024-03-08T06:25:08;97832.59;;;5.46;61.72
550;BME280;20066;48.764;9.176;2024-03-08T06:27:36;97838.91;;;4.50;64.71
550;BME280;20066;48.764;9.176;2024-03-08T06:30:05;97829.44;;;4.72;64.14
550;BME280;20066;48.764;9.176;2024-03-08T06:32:36;97842.94;;;4.83;63.22
550;BME280;20066;48.764;9.176;2024-03-08T06:35:05;97836.28;;;4.15;66.55
550;BME280;20066;48.764;9.176;2024-03-08T06:37:33;97835.53;;;4.73;65.17
550;BME280;20066;48.764;9.176;2024-03-08T06:40:03;97833.09;;;4.64;64.35
550;BME280;20066;48.764;9.176;2024-03-08T06:42:31;97830.50;;;4.48;65.04
550;BME280;20066;48.764;9.176;2024-03-08T06:45:01;97832.50;;;3.97;67.48
550;BME280;20066;48.764;9.176;2024-03-08T06:47:31;97833.00;;;4.80;64.49
550;BME280;20066;48.764;9.176;2024-03-08T06:50:00;97831.06;;;5.49;62.54
550;BME280;20066;48.764;9.176;2024-03-08T06:52:28;97832.31;;;5.81;61.87
550;BME280;20066;48.764;9.176;2024-03-08T06:54:56;97825.38;;;5.50;61.92
550;BME280;20066;48.764;9.176;2024-03-08T06:57:25;97834.63;;;6.12;61.04
550;BME280;20066;48.764;9.176;2024-03-08T06:59:53;97839.22;;;6.12;60.90
550;BME280;20066;48.764;9.176;2024-03-08T07:02:21;97832.25;;;5.51;62.27
550;BME280;20066;48.764;9.176;2024-03-08T07:04:51;97835.69;;;6.04;61.02
550;BME280;20066;48.764;9.176;2024-03-08T07:07:19;97833.72;;;6.01;60.74
550;BME280;20066;48.764;9.176;2024-03-08T07:09:48;97832.84;;;5.15;64.00
550;BME280;20066;48.764;9.176;2024-03-08T07:12:16;97837.72;;;5.84;60.91
550;BME280;20066;48.764;9.176;2024-03-08T07:14:46;97834.47;;;5.98;61.43
550;BME280;20066;48.764;9.176;2024-03-08T07:17:14;97829.13;;;6.61;59.85
550;BME280;20066;48.764;9.176;2024-03-08T07:19:43;97822.66;;;6.29;59.48
550;BME280;20066;48.764;9.176;2024-03-08T07:22:11;97825.44;;;7.14;57.68
550;BME280;20066;48.764;9.176;2024-03-08T07:24:39;97822.06;;;6.13;60.54
550;BME280;20066;48.764;9.176;2024-03-08T07:27:22;97815.06;;;5.49;60.81
550;BME280;20066;48.764;9.176;2024-03-08T07:29:52;97816.31;;;5.05;63.23
550;BME280;20066;48.764;9.176;2024-03-08T07:32:34;97827.72;;;6.41;59.92
550;BME280;20066;48.764;9.176;2024-03-08T07:35:02;97815.50;;;5.51;61.42
550;BME280;20066;48.764;9.176;2024-03-08T07:37:30;97820.03;;;6.03;61.86
550;BME280;20066;48.764;9.176;2024-03-08T07:39:59;97816.13;;;6.97;58.50
550;BME280;20066;48.764;9.176;2024-03-08T07:42:27;97812.72;;;7.00;58.22
550;BME280;20066;48.764;9.176;2024-03-08T07:44:56;97814.69;;;7.58;56.14
550;BME280;20066;48.764;9.176;2024-03-08T07:47:24;97814.81;;;7.21;57.36
550;BME280;20066;48.764;9.176;2024-03-08T07:49:53;97808.91;;;7.49;56.25
550;BME280;20066;48.764;9.176;2024-03-08T07:52:21;97808.00;;;7.85;55.44
550;BME280;20066;48.764;9.176;2024-03-08T07:54:50;97806.34;;;7.63;55.72
550;BME280;20066;48.764;9.176;2024-03-08T07:57:18;97805.94;;;6.73;58.62
550;BME280;20066;48.764;9.176;2024-03-08T07:59:45;97802.56;;;7.20;57.20
550;BME280;20066;48.764;9.176;2024-03-08T08:02:15;97802.94;;;7.15;56.84
550;BME280;20066;48.764;9.176;2024-03-08T08:04:43;97797.84;;;7.03;57.79
550;BME280;20066;48.764;9.176;2024-03-08T08:07:11;97798.31;;;7.12;57.97
550;BME280;20066;48.764;9.176;2024-03-08T08:09:42;97801.84;;;7.26;56.49
550;BME280;20066;48.764;9.176;2024-03-08T08:12:10;97797.63;;;7.76;56.15
550;BME280;20066;48.764;9.176;2024-03-08T08:14:38;97793.53;;;7.35;56.16
550;BME280;20066;48.764;9.176;2024-03-08T08:17:08;97792.06;;;7.45;56.24
550;BME280;20066;48.764;9.176;2024-03-08T08:19:42;97800.22;;;4.98;61.87
550;BME280;20066;48.764;9.176;2024-03-08T08:22:10;97789.75;;;5.35;62.89
550;BME280;20066;48.764;9.176;2024-03-08T08:24:38;97794.75;;;6.27;59.41
550;BME280;20066;48.764;9.176;2024-03-08T08:27:06;97782.84;;;6.91;57.94
550;BME280;20066;48.764;9.176;2024-03-08T08:29:35;97786.47;;;4.74;63.30
550;BME280;20066;48.764;9.176;2024-03-08T08:32:04;97785.16;;;5.89;60.36
550;BME280;20066;48.764;9.176;2024-03-08T08:34:32;97783.06;;;6.75;58.02
550;BME280;20066;48.764;9.176;2024-03-08T08:37:01;97783.09;;;6.38;58.27
550;BME280;20066;48.764;9.176;2024-03-08T08:39:29;97776.25;;;5.77;61.90
550;BME280;20066;48.764;9.176;2024-03-08T08:41:57;97775.88;;;7.23;57.04
550;BME280;20066;48.764;9.176;2024-03-08T08:44:25;97771.94;;;6.70;57.89
550;BME280;20066;48.764;9.176;2024-03-08T08:46:54;97773.50;;;7.15;57.65
550;BME280;20066;48.764;9.176;2024-03-08T08:49:31;97775.84;;;6.79;58.15
550;BME280;20066;48.764;9.176;2024-03-08T08:51:59;97772.31;;;6.68;57.91
550;BME280;20066;48.764;9.176;2024-03-08T08:54:39;97771.63;;;5.74;60.86
550;BME280;20066;48.764;9.176;2024-03-08T08:57:07;97771.13;;;5.65;61.66
550;BME280;20066;48.764;9.176;2024-03-08T08:59:37;97770.50;;;5.49;62.68
550;BME280;20066;48.764;9.176;2024-03-08T09:02:08;97783.50;;;5.80;60.82
550;BME280;20066;48.764;9.176;2024-03-08T09:04:39;97768.41;;;4.86;63.53
550;BME280;20066;48.764;9.176;2024-03-08T09:07:07;97773.28;;;5.56;63.39
550;BME280;20066;48.764;9.176;2024-03-08T09:09:41;97778.47;;;5.45;62.30
550;BME280;20066;48.764;9.176;2024-03-08T09:12:10;97769.13;;;5.89;61.67
550;BME280;20066;48.764;9.176;2024-03-08T09:14:40;97766.09;;;5.60;61.15
550;BME280;20066;48.764;9.176;2024-03-08T09:17:08;97756.53;;;5.29;63.29
550;BME280;20066;48.764;9.176;2024-03-08T09:19:36;97753.75;;;5.78;62.44
550;BME280;20066;48.764;9.176;2024-03-08T09:22:04;97761.09;;;6.18;60.61
550;BME280;20066;48.764;9.176;2024-03-08T09:24:32;97760.28;;;5.81;61.60
550;BME280;20066;48.764;9.176;2024-03-08T09:27:01;97749.69;;;6.99;58.71
550;BME280;20066;48.764;9.176;2024-03-08T09:29:30;97749.75;;;7.06;58.98
550;BME280;20066;48.764;9.176;2024-03-08T09:31:58;97752.00;;;5.90;60.53
550;BME280;20066;48.764;9.176;2024-03-08T09:34:25;97736.84;;;7.15;56.94
550;BME280;20066;48.764;9.176;2024-03-08T09:37:03;97736.44;;;7.13;57.87
550;BME280;20066;48.764;9.176;2024-03-08T09:39:31;97736.34;;;7.64;56.61
550;BME280;20066;48.764;9.176;2024-03-08T09:42:02;97738.47;;;7.30;56.74
550;BME280;20066;48.764;9.176;2024-03-08T09:44:30;97737.22;;;6.73;57.33
550;BME280;20066;48.764;9.176;2024-03-08T09:46:58;97737.44;;;6.94;58.01
550;BME280;20066;48.764;9.176;2024-03-08T09:49:29;97737.81;;;6.52;60.28
550;BME280;20066;48.764;9.176;2024-03-08T09:51:57;97728.06;;;6.71;59.17
550;BME280;20066;48.764;9.176;2024-03-08T09:54:25;97739.78;;;6.59;58.95
550;BME280;20066;48.764;9.176;2024-03-08T09:56:54;97741.69;;;7.03;58.45
550;BME280;20066;48.764;9.176;2024-03-08T09:59:23;97727.28;;;6.70;59.40
550;BME280;20066;48.764;9.176;2024-03-08T10:02:14;97724.53;;;7.65;56.04
550;BME280;20066;48.764;9.176;2024-03-08T10:04:43;97723.88;;;7.21;56.36
550;BME280;20066;48.764;9.176;2024-03-08T10:07:13;97726.75;;;6.54;59.24
550;BME280;20066;48.764;9.176;2024-03-08T10:09:41;97715.56;;;6.41;59.46
550;BME280;20066;48.764;9.176;2024-03-08T10:12:15;97718.06;;;6.64;59.59
550;BME280;20066;48.764;9.176;2024-03-08T10:14:45;97712.00;;;7.91;56.20
550;BME280;20066;48.764;9.176;2024-03-08T10:17:13;97712.53;;;7.38;56.46
550;BME280;20066;48.764;9.176;2024-03-08T10:19:49;97704.56;;;8.74;53.63
550;BME280;20066;48.764;9.176;2024-03-08T10:22:17;97710.97;;;8.24;53.48
550;BME280;20066;48.764;9.176;2024-03-08T10:24:46;97708.88;;;7.71;54.92
550;BME280;20066;48.764;9.176;2024-03-08T10:27:16;97706.88;;;7.54;56.47
550;BME280;20066;48.764;9.176;2024-03-08T10:29:47;97700.13;;;7.09;57.73
550;BME280;20066;48.764;9.176;2024-03-08T10:32:17;97696.88;;;8.48;53.67
550;BME280;20066;48.764;9.176;2024-03-08T10:34:45;97695.34;;;9.18;51.38
550;BME280;20066;48.764;9.176;2024-03-08T10:37:15;97692.19;;;8.06;54.34
550;BME280;20066;48.764;9.176;2024-03-08T10:39:59;97691.56;;;7.51;56.46
550;BME280;20066;48.764;9.176;2024-03-08T10:42:29;97690.88;;;7.61;54.38
550;BME280;20066;48.764;9.176;2024-03-08T10:45:11;97679.19;;;6.70;58.24
550;BME280;20066;48.764;9.176;2024-03-08T10:47:47;97679.22;;;8.43;54.46
550;BME280;20066;48.764;9.176;2024-03-08T10:50:19;97681.91;;;9.32;50.69
550;BME280;20066;48.764;9.176;2024-03-08T10:52:49;97681.50;;;8.24;54.35
550;BME280;20066;48.764;9.176;2024-03-08T10:55:18;97680.88;;;7.51;55.43
550;BME280;20066;48.764;9.176;2024-03-08T10:57:47;97683.50;;;8.69;53.49
550;BME280;20066;48.764;9.176;2024-03-08T11:00:17;97683.06;;;9.24;50.69
550;BME280;20066;48.764;9.176;2024-03-08T11:02:53;97685.81;;;10.73;48.45
550;BME280;20066;48.764;9.176;2024-03-08T11:05:32;97668.06;;;9.37;49.96
550;BME280;20066;48.764;9.176;2024-03-08T11:08:17;97671.50;;;10.83;47.77
550;BME280;20066;48.764;9.176;2024-03-08T11:10:47;97672.69;;;10.31;48.63
550;BME280;20066;48.764;9.176;2024-03-08T11:13:35;97664.72;;;8.76;51.37
550;BME280;20066;48.764;9.176;2024-03-08T11:16:08;97662.00;;;9.22;50.99
550;BME280;20066;48.764;9.176;2024-03-08T11:18:37;97663.97;;;8.94;51.40
550;BME280;20066;48.764;9.176;2024-03-08T11:21:08;97656.38;;;10.52;48.29
550;BME280;20066;48.764;9.176;2024-03-08T11:23:40;97649.03;;;11.04;46.55
550;BME280;20066;48.764;9.176;2024-03-08T11:26:17;97661.06;;;9.72;49.93
550;BME280;20066;48.764;9.176;2024-03-08T11:28:45;97653.59;;;11.45;45.92
550;BME280;20066;48.764;9.176;2024-03-08T11:31:25;97660.72;;;9.62;48.50
550;BME280;20066;48.764;9.176;2024-03-08T11:33:55;97651.69;;;8.32;53.25
550;BME280;20066;48.764;9.176;2024-03-08T11:36:24;97650.53;;;8.40;53.23
550;BME280;20066;48.764;9.176;2024-03-08T11:38:53;97641.75;;;8.86;52.25
550;BME280;20066;48.764;9.176;2024-03-08T11:41:24;97640.09;;;7.79;54.30
550;BME280;20066;48.764;9.176;2024-03-08T11:44:02;97635.88;;;9.37;51.85
550;BME280;20066;48.764;9.176;2024-03-08T11:46:34;97638.31;;;9.94;49.94
550;BME280;20066;48.764;9.176;2024-03-08T11:49:02;97633.47;;;9.67;51.19
550;BME280;20066;48.764;9.176;2024-03-08T11:51:32;97633.69;;;8.89;51.98
550;BME280;20066;48.764;9.176;2024-03-08T11:54:01;97624.19;;;11.65;46.35
550;BME280;20066;48.764;9.176;2024-03-08T11:56:30;97622.69;;;10.40;48.18
550;BME280;20066;48.764;9.176;2024-03-08T11:58:59;97608.25;;;9.47;50.58
550;BME280;20066;48.764;9.176;2024-03-08T12:01:32;97608.41;;;8.51;52.67
550;BME280;20066;48.764;9.176;2024-03-08T12:04:01;97604.16;;;7.97;54.25
550;BME280;20066;48.764;9.176;2024-03-08T12:06:37;97602.97;;;9.12;52.08
550;BME280;20066;48.764;9.176;2024-03-08T12:09:11;97600.72;;;9.10;51.65
550;BME280;20066;48.764;9.176;2024-03-08T12:11:39;97602.63;;;7.86;54.26
550;BME280;20066;48.764;9.176;2024-03-08T12:14:09;97595.03;;;8.37;53.15
550;BME280;20066;48.764;9.176;2024-03-08T12:16:37;97588.16;;;8.40;53.55
550;BME280;20066;48.764;9.176;2024-03-08T12:19:06;97582.75;;;8.61;53.33
550;BME280;20066;48.764;9.176;2024-03-08T12:21:36;97585.50;;;9.66;50.60
550;BME280;20066;48.764;9.176;2024-03-08T12:24:14;97568.72;;;10.14;49.27
550;BME280;20066;48.764;9.176;2024-03-08T12:26:43;97571.81;;;11.01;47.90
550;BME280;20066;48.764;9.176;2024-03-08T12:29:15;97573.84;;;9.94;49.43
550;BME280;20066;48.764;9.176;2024-03-08T12:31:44;97569.16;;;10.05;49.60
550;BME280;20066;48.764;9.176;2024-03-08T12:34:16;97566.91;;;10.89;48.24
550;BME280;20066;48.764;9.176;2024-03-08T12:36:48;97556.50;;;10.95;47.12
550;BME280;20066;48.764;9.176;2024-03-08T12:39:17;97561.09;;;10.57;48.01
550;BME280;20066;48.764;9.176;2024-03-08T12:41:49;97554.66;;;9.95;49.53
550;BME280;20066;48.764;9.176;2024-03-08T12:44:18;97550.94;;;9.79;50.19
550;BME280;20066;48.764;9.176;2024-03-08T12:46:48;97550.06;;;9.89;49.79
550;BME280;20066;48.764;9.176;2024-03-08T12:49:20;97542.19;;;10.19;49.37
550;BME280;20066;48.764;9.176;2024-03-08T12:51:49;97543.28;;;9.74;48.99
550;BME280;20066;48.764;9.176;2024-03-08T12:54:19;97531.31;;;10.37;48.94
550;BME280;20066;48.764;9.176;2024-03-08T12:56:50;97532.78;;;10.82;47.74
550;BME280;20066;48.764;9.176;2024-03-08T12:59:20;97523.63;;;10.39;49.01
550;BME280;20066;48.764;9.176;2024-03-08T13:01:51;97517.34;;;10.53;48.66
550;BME280;20066;48.764;9.176;2024-03-08T13:04:22;97507.31;;;10.12;49.26
550;BME280;20066;48.764;9.176;2024-03-08T13:06:50;97513.38;;;10.27;49.32
550;BME280;20066;48.764;9.176;2024-03-08T13:09:21;97502.03;;;10.46;48.39
550;BME280;20066;48.764;9.176;2024-03-08T13:11:50;97494.03;;;9.36;51.33
550;BME280;20066;48.764;9.176;2024-03-08T13:14:20;97497.44;;;9.47;50.92
550;BME280;20066;48.764;9.176;2024-03-08T13:16:48;97492.06;;;9.47;51.36
550;BME280;20066;48.764;9.176;2024-03-08T13:19:17;97489.56;;;9.77;50.74
550;BME280;20066;48.764;9.176;2024-03-08T13:21:49;97488.00;;;9.80;50.53
550;BME280;20066;48.764;9.176;2024-03-08T13:24:17;97480.84;;;9.59;49.86
550;BME280;20066;48.764;9.176;2024-03-08T13:26:47;97476.78;;;10.74;47.59
550;BME280;20066;48.764;9.176;2024-03-08T13:29:14;97476.81;;;11.35;46.74
550;BME280;20066;48.764;9.176;2024-03-08T13:31:45;97476.22;;;10.56;48.91
550;BME280;20066;48.764;9.176;2024-03-08T13:34:13;97469.09;;;11.64;46.23
550;BME280;20066;48.764;9.176;2024-03-08T13:36:42;97463.25;;;12.38;45.14
550;BME280;20066;48.764;9.176;2024-03-08T13:39:12;97455.53;;;12.17;44.85
550;BME280;20066;48.764;9.176;2024-03-08T13:41:42;97454.50;;;12.11;44.74
550;BME280;20066;48.764;9.176;2024-03-08T13:44:11;97446.66;;;11.43;46.31